Time;durP1;ratioP1;P1;durP2;ratioP2;P2;SDS_P1;SDS_P2;PMS_P1;PMS_P2;Temp;Humidity;BMP_temperature;BMP_pressure;BME280_temperature;BME280_humidity;BME280_pressure;Samples;Min_cycle;Max_cycle;Signal;HPM_P1;HPM_P2
2022/07/20 00:00:27;;;;;;;5.28;3.10;;;;;;;26.43;31.64;101074.75;5073599;28;20044;-73
2022/07/20 00:02:54;;;;;;;6.63;3.10;;;;;;;26.37;31.41;101080.75;5062450;28;20559;-73
2022/07/20 00:05:21;;;;;;;4.20;3.13;;;;;;;26.33;31.49;101091.00;5074963;28;20045;-73
2022/07/20 00:07:48;;;;;;;7.65;3.25;;;;;;;26.29;32.01;101084.16;5072196;28;20041;-73
2022/07/20 00:13:04;;;;;;;5.53;2.90;;;;;;;26.20;32.40;101080.47;5069687;28;20049;-73
2022/07/20 00:15:31;;;;;;;5.82;3.30;;;;;;;26.16;32.87;101081.75;5073443;28;20080;-73
2022/07/20 00:17:58;;;;;;;4.07;3.35;;;;;;;26.10;33.15;101080.47;5067633;28;20122;-71
2022/07/20 00:20:25;;;;;;;6.63;3.80;;;;;;;26.03;33.03;101079.31;5073550;28;20037;-72
2022/07/20 00:22:53;;;;;;;5.32;3.47;;;;;;;25.96;32.93;101081.72;5073596;28;20041;-74
2022/07/20 00:25:20;;;;;;;4.30;3.30;;;;;;;25.92;33.25;101074.91;5073732;28;20049;-73
2022/07/20 00:27:47;;;;;;;8.10;3.72;;;;;;;25.86;33.78;101073.63;5074132;28;20048;-74
2022/07/20 00:30:15;;;;;;;5.72;3.42;;;;;;;25.85;34.20;101080.00;5061547;28;20049;-74
2022/07/20 00:32:42;;;;;;;5.55;3.38;;;;;;;25.81;34.44;101075.91;5073637;28;20037;-74
2022/07/20 00:35:13;;;;;;;8.18;3.50;;;;;;;25.78;33.95;101072.63;5072967;28;20044;-73
2022/07/20 00:37:41;;;;;;;5.88;3.40;;;;;;;25.74;34.11;101081.00;5072857;28;20114;-74
2022/07/20 00:40:12;;;;;;;7.60;3.22;;;;;;;25.72;34.17;101080.28;5070026;28;20557;-73
2022/07/20 00:42:39;;;;;;;7.10;3.10;;;;;;;25.67;34.18;101073.59;5073256;28;20037;-72
2022/07/20 00:45:09;;;;;;;8.65;3.40;;;;;;;25.61;34.08;101075.00;5073568;28;20045;-72
2022/07/20 00:47:38;;;;;;;8.40;3.22;;;;;;;25.55;34.25;101071.00;5072134;28;20069;-72
2022/07/20 00:50:07;;;;;;;6.45;3.70;;;;;;;25.48;33.99;101064.47;5072850;28;20116;-73
2022/07/20 00:52:35;;;;;;;6.45;3.25;;;;;;;25.42;33.97;101065.03;5073351;28;20052;-72
2022/07/20 00:55:03;;;;;;;6.45;3.75;;;;;;;25.36;34.41;101066.41;5072204;28;20957;-73
2022/07/20 00:57:31;;;;;;;7.22;3.58;;;;;;;25.31;34.44;101068.66;5073172;28;20041;-73
2022/07/20 00:59:59;;;;;;;8.50;3.25;;;;;;;25.25;34.33;101059.25;5072878;28;20072;-72
2022/07/20 01:02:26;;;;;;;6.30;3.33;;;;;;;25.20;34.74;101058.84;5054531;28;20049;-73
2022/07/20 01:04:53;;;;;;;7.88;3.60;;;;;;;25.16;35.63;101056.56;5065852;28;20582;-74
2022/07/20 01:07:20;;;;;;;6.72;3.53;;;;;;;25.11;35.54;101052.41;5072361;28;20071;-73
2022/07/20 01:09:48;;;;;;;7.88;3.70;;;;;;;25.05;35.40;101054.78;5075384;28;20053;-73
2022/07/20 01:12:15;;;;;;;6.55;4.18;;;;;;;24.99;35.39;101066.13;5072326;28;20447;-73
2022/07/20 01:14:43;;;;;;;6.18;3.30;;;;;;;24.92;35.16;101065.81;5074396;28;20077;-73
2022/07/20 01:17:11;;;;;;;7.45;3.60;;;;;;;24.89;35.17;101064.25;5072451;28;20845;-73
2022/07/20 01:19:39;;;;;;;6.72;3.60;;;;;;;24.87;35.38;101062.69;5072148;28;20044;-73
2022/07/20 01:22:07;;;;;;;6.47;3.40;;;;;;;24.83;35.24;101066.63;5057807;28;20071;-73
2022/07/20 01:24:34;;;;;;;5.88;3.65;;;;;;;24.78;35.48;101065.19;5070290;28;20045;-73
2022/07/20 01:27:04;;;;;;;5.28;4.05;;;;;;;24.72;35.98;101060.34;5072443;28;20076;-73
2022/07/20 01:29:32;;;;;;;6.00;3.78;;;;;;;24.69;36.56;101057.91;5072626;28;20095;-73
2022/07/20 01:31:59;;;;;;;7.55;4.10;;;;;;;24.66;37.13;101061.69;5071838;28;20096;-73
2022/07/20 01:34:26;;;;;;;5.43;4.05;;;;;;;24.60;37.20;101062.22;5071159;28;20037;-74
2022/07/20 01:36:53;;;;;;;10.45;4.45;;;;;;;24.54;36.92;101061.91;5072346;28;20509;-74
2022/07/20 01:39:20;;;;;;;7.63;4.40;;;;;;;24.48;37.32;101064.13;5063951;28;20037;-74
2022/07/20 01:41:52;;;;;;;6.85;3.60;;;;;;;24.43;36.91;101062.81;5064622;28;20037;-74
2022/07/20 01:44:24;;;;;;;6.45;4.18;;;;;;;24.41;36.71;101062.13;5072061;28;20094;-75
2022/07/20 01:46:52;;;;;;;8.68;3.80;;;;;;;24.38;36.09;101060.50;5070804;28;20048;-74
2022/07/20 01:49:22;;;;;;;7.97;3.67;;;;;;;24.39;36.65;101069.47;5072050;28;20041;-74
2022/07/20 01:51:49;;;;;;;6.82;3.90;;;;;;;24.37;36.83;101074.13;5069005;28;20037;-74
2022/07/20 01:54:16;;;;;;;5.18;3.90;;;;;;;24.33;36.82;101073.53;5063640;28;20087;-74
2022/07/20 01:56:43;;;;;;;5.40;3.88;;;;;;;24.30;37.18;101077.34;5060550;28;20045;-74
2022/07/20 01:59:10;;;;;;;7.32;4.47;;;;;;;24.23;37.05;101080.69;5054131;28;20124;-74
2022/07/20 02:01:38;;;;;;;7.82;4.85;;;;;;;24.13;38.23;101086.84;5066206;28;20576;-74
2022/07/20 02:04:06;;;;;;;5.90;5.30;;;;;;;24.02;38.29;101081.50;5058636;28;20099;-73
2022/07/20 02:06:33;;;;;;;8.23;5.00;;;;;;;23.92;40.05;101078.69;5075769;28;20147;-75
2022/07/20 02:09:01;;;;;;;6.05;4.75;;;;;;;23.78;39.83;101082.53;5091569;28;20068;-74
2022/07/20 02:11:28;;;;;;;6.93;4.03;;;;;;;23.68;39.82;101082.47;5074654;28;20098;-75
2022/07/20 02:13:55;;;;;;;7.22;3.88;;;;;;;23.65;39.56;101082.69;5071863;28;20120;-74
2022/07/20 02:16:23;;;;;;;9.65;3.97;;;;;;;23.62;39.27;101091.00;5060882;28;20049;-75
2022/07/20 02:18:57;;;;;;;4.85;3.47;;;;;;;23.58;39.63;101092.25;5071492;28;20076;-75
2022/07/20 02:21:24;;;;;;;5.53;3.55;;;;;;;23.54;39.28;101097.03;5071375;28;20048;-76
2022/07/20 02:23:52;;;;;;;6.07;3.90;;;;;;;23.52;39.39;101101.69;5072044;28;20041;-75
2022/07/20 02:26:19;;;;;;;8.55;3.42;;;;;;;23.50;39.57;101109.03;5070507;28;20127;-74
2022/07/20 02:28:47;;;;;;;5.68;3.50;;;;;;;23.48;41.26;101120.91;5071988;28;20095;-74
2022/07/20 02:31:14;;;;;;;6.88;3.70;;;;;;;23.38;42.64;101108.19;5061652;28;20151;-75
2022/07/20 02:33:42;;;;;;;7.55;3.67;;;;;;;23.35;43.16;101126.41;5071232;28;20037;-75
2022/07/20 02:36:09;;;;;;;4.68;3.38;;;;;;;23.30;43.86;101120.53;5068177;28;20041;-74
2022/07/20 02:38:38;;;;;;;6.95;3.72;;;;;;;23.22;43.49;101115.75;5051618;28;20120;-72
2022/07/20 02:41:05;;;;;;;6.10;3.58;;;;;;;23.18;45.00;101106.22;5068706;28;20072;-72
2022/07/20 02:43:33;;;;;;;6.72;3.80;;;;;;;23.11;44.64;101106.69;5071279;28;20099;-71
2022/07/20 02:46:00;;;;;;;6.38;3.90;;;;;;;23.02;44.49;101102.03;5060498;28;20072;-73
2022/07/20 02:48:27;;;;;;;6.15;4.00;;;;;;;22.91;44.67;101092.16;5064760;28;20517;-71
2022/07/20 02:50:54;;;;;;;7.70;4.15;;;;;;;22.81;44.10;101099.22;5071481;28;20048;-71
2022/07/20 02:53:22;;;;;;;5.65;3.65;;;;;;;22.68;43.94;101093.97;5071827;28;20041;-73
2022/07/20 02:55:49;;;;;;;7.10;3.78;;;;;;;22.57;44.29;101084.03;5055752;28;20089;-74
2022/07/20 02:58:17;;;;;;;5.78;3.60;;;;;;;22.42;44.28;101088.75;5068251;28;20037;-70
2022/07/20 03:00:44;;;;;;;5.93;3.92;;;;;;;22.39;45.21;101082.72;5069842;28;20041;-74
2022/07/20 03:03:11;;;;;;;7.72;3.55;;;;;;;22.30;44.60;101081.59;5070814;28;20854;-75
2022/07/20 03:05:39;;;;;;;6.50;3.92;;;;;;;22.20;45.04;101086.81;5071015;28;20383;-74
2022/07/20 03:08:07;;;;;;;6.50;4.35;;;;;;;;;;5062933;28;20149;-72
2022/07/20 03:10:36;;;;;;;7.00;4.25;;;;;;;21.99;45.31;101079.41;5056792;28;20044;-76
2022/07/20 03:13:03;;;;;;;8.07;4.15;;;;;;;21.91;45.43;101076.47;5074781;28;20045;-76
2022/07/20 03:15:31;;;;;;;7.25;4.47;;;;;;;21.85;45.83;101087.63;5070616;28;20045;-76
2022/07/20 03:17:59;;;;;;;5.78;4.65;;;;;;;21.82;46.07;101098.63;5070710;28;20082;-72
2022/07/20 03:20:34;;;;;;;6.82;4.70;;;;;;;21.80;46.21;101112.13;5070631;28;20132;-72
2022/07/20 03:23:03;;;;;;;5.18;3.95;;;;;;;21.80;45.78;101130.06;5068188;28;20124;-72
2022/07/20 03:25:31;;;;;;;6.32;4.35;;;;;;;21.84;46.13;101126.16;5070461;28;20081;-73
2022/07/20 03:28:00;;;;;;;18.55;6.18;;;;;;;21.90;46.21;101135.59;5069409;28;20049;-74
2022/07/20 03:30:29;;;;;;;9.80;4.18;;;;;;;21.92;46.33;101134.53;5054531;28;20037;-75
2022/07/20 03:32:57;;;;;;;7.53;4.15;;;;;;;21.93;46.68;101136.22;5070518;28;20124;-74
2022/07/20 03:35:24;;;;;;;9.38;4.03;;;;;;;21.94;47.03;101123.69;5071119;28;20053;-74
2022/07/20 03:37:51;;;;;;;8.70;4.10;;;;;;;21.92;46.78;101130.97;5066666;28;20132;-74
2022/07/20 03:40:18;;;;;;;8.38;4.25;;;;;;;21.89;47.17;101140.13;5071578;28;20091;-74
2022/07/20 03:42:45;;;;;;;9.25;4.28;;;;;;;21.88;47.05;101147.28;5066007;28;20533;-73
2022/07/20 03:45:13;;;;;;;6.22;4.35;;;;;;;21.86;47.06;101157.31;5071010;28;20126;-75
2022/07/20 03:47:40;;;;;;;10.75;4.70;;;;;;;21.88;47.00;101152.66;5069559;28;20496;-75
2022/07/20 03:50:08;;;;;;;8.75;4.70;;;;;;;21.93;47.00;101160.38;5074729;28;20076;-75
2022/07/20 03:52:36;;;;;;;6.97;4.38;;;;;;;21.97;46.61;101156.50;5073953;28;20090;-75
2022/07/20 03:55:04;;;;;;;9.57;4.70;;;;;;;22.03;46.58;101166.78;5074569;28;20099;-75
2022/07/20 03:57:32;;;;;;;13.43;5.57;;;;;;;22.11;45.99;101173.44;5068431;28;20052;-74
2022/07/20 03:59:59;;;;;;;14.10;5.90;;;;;;;22.21;46.02;101173.59;5071349;28;20045;-73
2022/07/20 04:02:26;;;;;;;12.63;5.88;;;;;;;22.28;45.74;101166.81;5065006;28;20043;-74
2022/07/20 04:04:53;;;;;;;13.25;6.00;;;;;;;22.33;45.57;101173.53;5065918;28;20080;-71
2022/07/20 04:07:20;;;;;;;10.15;6.85;;;;;;;22.45;45.94;101178.97;5077355;28;20071;-71
2022/07/20 04:09:48;;;;;;;12.05;7.50;;;;;;;22.56;46.13;101184.38;5074124;28;20045;-72
2022/07/20 04:12:24;;;;;;;42.35;9.57;;;;;;;22.63;46.31;101188.34;5073910;28;20131;-71
2022/07/20 04:14:53;;;;;;;23.52;8.35;;;;;;;22.64;46.62;101186.50;5072827;28;20049;-71
2022/07/20 04:17:22;;;;;;;28.85;9.50;;;;;;;22.64;46.54;101197.25;5074922;28;20056;-73
2022/07/20 04:19:50;;;;;;;17.38;7.78;;;;;;;22.68;46.16;101208.63;5074079;28;20084;-73
2022/07/20 04:22:17;;;;;;;14.95;7.20;;;;;;;22.73;46.01;101209.13;5073230;28;20053;-72
2022/07/20 04:24:44;;;;;;;17.35;6.72;;;;;;;22.77;45.58;101214.16;5074084;28;20064;-74
2022/07/20 04:27:12;;;;;;;11.63;6.22;;;;;;;22.83;45.06;101222.72;5069980;28;20072;-73
2022/07/20 04:29:40;;;;;;;10.35;6.32;;;;;;;22.85;44.98;101236.91;5071446;28;20040;-73
2022/07/20 04:32:07;;;;;;;9.25;5.95;;;;;;;22.83;45.30;101239.72;5072205;28;20115;-75
2022/07/20 04:34:35;;;;;;;15.43;6.88;;;;;;;22.85;45.01;101232.38;5073478;28;20533;-73
2022/07/20 04:37:07;;;;;;;17.23;6.97;;;;;;;22.88;45.00;101237.50;5071662;28;20033;-72
2022/07/20 04:39:34;;;;;;;17.15;7.57;;;;;;;22.92;45.36;101238.13;5070721;28;20072;-74
2022/07/20 04:42:03;;;;;;;10.93;6.65;;;;;;;22.95;45.42;101241.44;5070413;28;20048;-75
2022/07/20 04:44:31;;;;;;;13.48;8.13;;;;;;;23.05;46.00;101244.28;5070869;28;20104;-75
2022/07/20 04:46:58;;;;;;;16.02;9.07;;;;;;;23.09;46.95;101258.34;5071865;28;20524;-74
2022/07/20 04:49:26;;;;;;;16.30;9.05;;;;;;;23.08;46.85;101256.63;5069331;28;20037;-75
2022/07/20 04:51:53;;;;;;;18.42;10.13;;;;;;;23.14;47.31;101263.38;5074139;28;20505;-75
2022/07/20 04:54:21;;;;;;;22.20;11.55;;;;;;;23.19;48.24;101272.00;5074228;28;20051;-76
2022/07/20 04:56:49;;;;;;;21.05;11.35;;;;;;;23.26;48.32;101266.00;5071420;28;20516;-76
2022/07/20 04:59:17;;;;;;;21.40;12.90;;;;;;;23.31;49.16;101270.16;5070374;28;20080;-76
2022/07/20 05:01:44;;;;;;;29.63;13.68;;;;;;;23.33;49.51;101268.22;5069040;28;20041;-75
2022/07/20 05:04:11;;;;;;;49.13;15.50;;;;;;;23.38;49.94;101271.41;5069698;28;20041;-74
2022/07/20 05:06:38;;;;;;;53.38;15.75;;;;;;;23.41;50.42;101268.47;5072363;28;20544;-75
2022/07/20 05:09:10;;;;;;;26.35;14.20;;;;;;;23.48;50.53;101280.47;5072812;28;20045;-75
2022/07/20 05:11:38;;;;;;;38.88;16.13;;;;;;;23.56;50.78;101280.72;5071831;28;20098;-74
2022/07/20 05:14:08;;;;;;;36.92;16.67;;;;;;;23.67;51.02;101281.69;5071956;28;20798;-74
2022/07/20 05:16:36;;;;;;;41.67;16.33;;;;;;;23.80;51.28;101276.22;5072502;28;20068;-73
2022/07/20 05:19:04;;;;;;;58.25;19.25;;;;;;;23.86;51.12;101273.88;5072993;28;20594;-74
2022/07/20 05:21:39;;;;;;;35.08;17.45;;;;;;;23.95;51.88;101275.00;5073493;28;20096;-73
2022/07/20 05:24:07;;;;;;;43.67;18.95;;;;;;;24.17;51.58;101282.19;5070812;28;20036;-71
2022/07/20 05:26:34;;;;;;;32.30;19.02;;;;;;;24.36;51.29;101275.31;5071838;28;20041;-74
2022/07/20 05:29:01;;;;;;;35.05;19.45;;;;;;;24.45;51.46;101273.69;5072001;28;20045;-74
2022/07/20 05:31:29;;;;;;;48.47;19.75;;;;;;;24.54;51.46;101272.09;5070526;28;20064;-73
2022/07/20 05:33:56;;;;;;;45.35;19.60;;;;;;;24.68;51.57;101269.09;5071602;28;20037;-72
2022/07/20 05:36:23;;;;;;;44.88;20.00;;;;;;;25.15;51.06;101276.84;5072248;28;20037;-72
2022/07/20 05:38:52;;;;;;;31.95;19.83;;;;;;;26.22;48.77;101269.44;5063220;28;20523;-72
2022/07/20 05:41:19;;;;;;;26.90;18.75;;;;;;;27.93;45.24;101265.28;5073800;28;20153;-74
2022/07/20 05:43:47;;;;;;;30.23;18.30;;;;;;;29.37;42.21;101265.34;5070923;28;20492;-73
2022/07/20 05:46:14;;;;;;;29.60;20.05;;;;;;;30.56;39.57;101270.94;5070891;28;20041;-74
2022/07/20 05:48:44;;;;;;;28.35;19.00;;;;;;;31.53;37.41;101274.81;5077204;28;20037;-74
2022/07/20 05:51:12;;;;;;;28.83;19.13;;;;;;;32.19;36.27;101277.25;5070931;28;20534;-72
2022/07/20 05:53:49;;;;;;;33.50;17.70;;;;;;;32.72;34.79;101276.59;5071110;28;20516;-73
2022/07/20 05:56:16;;;;;;;25.90;17.88;;;;;;;32.75;34.82;101279.81;5070645;28;20116;-73
2022/07/20 05:58:44;;;;;;;27.80;18.67;;;;;;;32.68;34.23;101289.78;5072509;28;20037;-73
2022/07/20 06:01:11;;;;;;;26.85;17.20;;;;;;;31.56;35.84;101304.41;5076460;28;20060;-73
2022/07/20 06:03:38;;;;;;;29.42;18.45;;;;;;;32.35;35.04;101306.34;5066788;28;20064;-74
2022/07/20 06:06:09;;;;;;;25.27;18.27;;;;;;;33.01;33.91;101318.72;5071375;28;20103;-74
2022/07/20 06:08:37;;;;;;;39.28;20.05;;;;;;;33.42;33.59;101323.81;5075118;28;20072;-74
2022/07/20 06:11:24;;;;;;;33.20;18.13;;;;;;;33.79;33.25;101329.41;5070915;28;20045;-73
2022/07/20 06:13:51;;;;;;;25.02;17.20;;;;;;;34.01;32.24;101333.09;5085327;28;20049;-74
2022/07/20 06:16:18;;;;;;;25.35;17.73;;;;;;;33.71;32.46;101352.19;5091740;28;20532;-73
2022/07/20 06:18:46;;;;;;;33.53;17.00;;;;;;;32.19;34.12;101351.75;5081162;28;20142;-72
2022/07/20 06:21:14;;;;;;;27.30;15.85;;;;;;;30.52;37.28;101372.88;5083360;28;20495;-73
2022/07/20 06:23:42;;;;;;;22.75;16.58;;;;;;;29.31;40.17;101360.09;5073993;28;20048;-73
2022/07/20 06:26:09;;;;;;;25.38;16.48;;;;;;;28.43;41.46;101367.03;5072722;28;20107;-72
2022/07/20 06:28:36;;;;;;;25.95;16.80;;;;;;;27.84;43.00;101372.66;5073155;28;20049;-74
2022/07/20 06:31:05;;;;;;;23.52;16.40;;;;;;;27.40;44.08;101382.13;5072376;28;20505;-73
2022/07/20 06:33:33;;;;;;;24.50;16.00;;;;;;;27.09;45.02;101393.09;5074481;28;20553;-73
2022/07/20 06:36:00;;;;;;;32.70;16.02;;;;;;;26.89;45.90;101394.06;5082862;27;20097;-72
2022/07/20 06:38:28;;;;;;;25.27;15.32;;;;;;;26.73;46.16;101403.56;5071964;28;20041;-73
2022/07/20 06:40:55;;;;;;;30.98;15.07;;;;;;;26.64;46.47;101407.13;5070846;28;20049;-75
2022/07/20 06:43:23;;;;;;;23.30;15.00;;;;;;;26.57;46.89;101424.84;5071446;28;20120;-71
2022/07/20 06:45:50;;;;;;;29.83;16.42;;;;;;;26.51;46.99;101412.75;5071089;28;20091;-71
2022/07/20 06:48:17;;;;;;;30.83;16.20;;;;;;;26.50;46.87;101438.09;5071856;28;20115;-73
2022/07/20 06:50:46;;;;;;;32.75;15.70;;;;;;;26.49;46.48;101431.81;5066863;28;20525;-73
2022/07/20 06:53:18;;;;;;;27.35;14.63;;;;;;;26.50;46.90;101443.50;5066372;28;20148;-72
2022/07/20 06:55:48;;;;;;;19.92;14.35;;;;;;;26.51;46.67;101451.47;5066908;28;20048;-72
2022/07/20 06:58:15;;;;;;;24.40;13.82;;;;;;;26.49;46.23;101447.19;5068068;28;20099;-71
2022/07/20 07:00:42;;;;;;;20.42;13.38;;;;;;;26.45;46.46;101452.00;5068110;28;20045;-71
2022/07/20 07:03:09;;;;;;;23.00;13.90;;;;;;;26.44;46.10;101455.69;5068232;28;20480;-72
2022/07/20 07:05:36;;;;;;;21.88;12.80;;;;;;;26.56;45.96;101475.38;5068258;28;20065;-72
2022/07/20 07:08:04;;;;;;;20.40;11.65;;;;;;;26.60;45.92;101484.94;5057878;28;20037;-72
2022/07/20 07:10:31;;;;;;;16.98;12.23;;;;;;;26.57;45.96;101490.59;5067449;28;20099;-71
2022/07/20 07:12:58;;;;;;;18.17;12.50;;;;;;;26.61;46.16;101493.88;5067823;28;20041;-71
2022/07/20 07:15:26;;;;;;;30.13;13.02;;;;;;;26.66;46.37;101481.69;5068442;28;20048;-72
2022/07/20 07:17:54;;;;;;;24.33;12.98;;;;;;;26.69;45.68;101485.09;5050724;28;20052;-71
2022/07/20 07:20:22;;;;;;;19.45;11.85;;;;;;;26.55;45.74;101495.28;5049110;28;20071;-71
2022/07/20 07:22:51;;;;;;;20.30;11.40;;;;;;;26.53;45.84;101499.97;5064566;28;20040;-71
2022/07/20 07:25:19;;;;;;;20.88;12.45;;;;;;;26.50;45.79;101513.78;5070790;28;20174;-72
2022/07/20 07:27:46;;;;;;;26.30;12.20;;;;;;;26.63;45.88;101524.34;5067792;28;20594;-71
2022/07/20 07:30:13;;;;;;;30.67;12.88;;;;;;;26.71;45.70;101527.22;5071405;28;20495;-71
2022/07/20 07:32:40;;;;;;;27.40;12.45;;;;;;;26.74;45.64;101526.97;5071238;28;20045;-70
2022/07/20 07:35:08;;;;;;;18.42;11.73;;;;;;;26.93;45.51;101547.00;5071806;28;20087;-72
2022/07/20 07:37:39;;;;;;;22.45;12.95;;;;;;;27.10;45.08;101540.06;5062151;28;20099;-71
2022/07/20 07:40:07;;;;;;;20.75;11.48;;;;;;;27.22;44.83;101541.66;5070420;28;20041;-72
2022/07/20 07:42:34;;;;;;;23.92;11.50;;;;;;;27.20;44.97;101545.50;5071067;28;20053;-72
2022/07/20 07:45:06;;;;;;;18.55;10.40;;;;;;;27.01;44.97;101540.91;5078519;28;20068;-71
2022/07/20 07:47:34;;;;;;;17.90;10.30;;;;;;;26.72;45.44;101545.16;5072424;28;20050;-71
2022/07/20 07:50:02;;;;;;;19.98;9.43;;;;;;;26.48;45.60;101542.78;5071523;28;20496;-70
2022/07/20 07:52:30;;;;;;;17.77;9.48;;;;;;;26.28;46.25;101545.38;5070318;28;20080;-71
2022/07/20 07:54:57;;;;;;;19.98;10.10;;;;;;;26.27;46.27;101532.84;5071794;28;20116;-71
2022/07/20 07:57:24;;;;;;;25.90;11.55;;;;;;;26.47;46.55;101552.72;5070560;28;20496;-71
2022/07/20 07:59:51;;;;;;;14.50;10.02;;;;;;;26.64;46.24;101556.66;5086212;28;20037;-71
2022/07/20 08:02:18;;;;;;;22.33;10.82;;;;;;;26.78;46.09;101555.47;5087376;28;20048;-71
2022/07/20 08:04:47;;;;;;;25.65;11.05;;;;;;;27.00;46.31;101560.84;5085611;28;20120;-71
2022/07/20 08:07:14;;;;;;;17.13;10.48;;;;;;;27.14;45.69;101560.44;5066824;28;20042;-74
2022/07/20 08:09:42;;;;;;;17.88;10.27;;;;;;;27.29;45.25;101552.78;5060161;28;20041;-72
2022/07/20 08:12:09;;;;;;;16.65;9.85;;;;;;;27.39;44.52;101556.34;5079823;28;20088;-73
2022/07/20 08:14:36;;;;;;;19.35;9.88;;;;;;;27.39;44.36;101559.06;5070122;28;20835;-74
2022/07/20 08:17:03;;;;;;;16.25;9.75;;;;;;;27.42;44.56;101575.03;5070291;28;20052;-72
2022/07/20 08:19:31;;;;;;;20.00;10.10;;;;;;;27.46;44.61;101578.34;5072331;28;20033;-73
2022/07/20 08:21:58;;;;;;;32.10;10.68;;;;;;;27.49;44.15;101569.94;5074035;28;20079;-71
2022/07/20 08:24:25;;;;;;;19.80;10.50;;;;;;;27.50;44.45;101566.25;5067838;28;20629;-71
2022/07/20 08:26:52;;;;;;;18.52;9.85;;;;;;;27.53;44.39;101559.69;5069407;28;20057;-72
2022/07/20 08:29:20;;;;;;;23.80;10.45;;;;;;;27.52;44.13;101558.81;5070563;28;20040;-71
2022/07/20 08:31:47;;;;;;;18.60;10.45;;;;;;;27.39;44.25;101553.66;5069706;28;20041;-70
2022/07/20 08:34:14;;;;;;;17.85;9.90;;;;;;;27.46;44.79;101570.22;5068841;28;20048;-71
2022/07/20 08:36:49;;;;;;;19.42;10.43;;;;;;;27.60;44.47;101577.09;5084568;28;20048;-72
2022/07/20 08:39:18;;;;;;;21.20;10.07;;;;;;;27.72;44.24;101577.81;5075896;28;20041;-71
2022/07/20 08:41:46;;;;;;;18.15;9.95;;;;;;;27.83;44.02;101580.38;5071871;28;20126;-71
2022/07/20 08:44:13;;;;;;;25.27;11.02;;;;;;;27.94;43.98;101568.56;5070582;28;20040;-72
2022/07/20 08:46:44;;;;;;;21.85;11.00;;;;;;;28.04;43.72;101571.22;5069955;28;20045;-71
2022/07/20 08:49:14;;;;;;;16.33;10.50;;;;;;;28.07;43.60;101570.13;5071652;28;20033;-72
2022/07/20 08:51:42;;;;;;;17.23;9.38;;;;;;;28.18;43.75;101568.13;5069123;28;20118;-71
2022/07/20 08:54:09;;;;;;;14.48;9.15;;;;;;;28.31;43.67;101569.69;5075977;28;20052;-71
2022/07/20 08:56:37;;;;;;;24.60;9.02;;;;;;;28.33;42.38;101567.69;5072353;28;20049;-74
2022/07/20 08:59:05;;;;;;;18.65;8.98;;;;;;;28.38;42.05;101564.53;5076277;28;20095;-72
2022/07/20 09:01:33;;;;;;;19.38;8.52;;;;;;;28.40;41.96;101565.22;5088216;28;20092;-71
2022/07/20 09:04:11;;;;;;;18.27;8.70;;;;;;;28.51;42.15;101576.78;5074764;28;20087;-73
2022/07/20 09:06:49;;;;;;;15.43;7.93;;;;;;;28.70;41.60;101565.97;5072448;28;20533;-72
2022/07/20 09:09:19;;;;;;;15.90;7.65;;;;;;;28.84;40.98;101564.69;5072901;28;20041;-72
2022/07/20 09:11:48;;;;;;;16.08;7.22;;;;;;;28.88;41.11;101549.81;5073438;28;20084;-72
2022/07/20 09:14:42;;;;;;;14.93;7.07;;;;;;;28.86;40.86;101539.13;5074294;28;20041;-71
2022/07/20 09:17:25;;;;;;;14.70;7.30;;;;;;;28.79;40.84;101516.31;5073297;28;20060;-72
2022/07/20 09:20:06;;;;;;;15.45;6.80;;;;;;;28.75;40.68;101526.59;5074285;28;20048;-72
2022/07/20 09:22:38;;;;;;;17.85;8.38;;;;;;;28.74;41.12;101535.75;5070397;28;20055;-72
2022/07/20 09:25:13;;;;;;;14.75;7.68;;;;;;;28.83;40.19;101555.69;5071478;28;20047;-72
2022/07/20 09:27:42;;;;;;;13.60;7.88;;;;;;;28.96;40.51;101560.75;5067825;28;20045;-72
2022/07/20 09:30:16;;;;;;;12.77;7.30;;;;;;;29.05;40.31;101578.00;5066208;28;20056;-71
2022/07/20 09:33:00;;;;;;;9.30;6.43;;;;;;;29.00;39.31;101586.59;5073454;28;20048;-71
2022/07/20 09:35:35;;;;;;;12.90;7.35;;;;;;;29.09;39.99;101593.00;5076755;28;20044;-71
2022/07/20 09:38:07;;;;;;;14.57;7.55;;;;;;;29.26;39.41;101600.34;5069236;28;20048;-71
2022/07/20 09:40:46;;;;;;;14.13;7.25;;;;;;;29.39;39.66;101589.13;5071869;28;20049;-71
2022/07/20 09:43:35;;;;;;;18.00;7.28;;;;;;;29.55;38.96;101582.19;5074883;28;20479;-71
2022/07/20 09:46:19;;;;;;;14.30;7.35;;;;;;;29.58;39.01;101577.28;5070081;28;20041;-71
2022/07/20 09:48:49;;;;;;;24.33;8.27;;;;;;;29.64;39.00;101570.41;5073655;28;20037;-70
2022/07/20 09:51:35;;;;;;;18.90;7.20;;;;;;;29.79;39.30;101564.41;5073609;28;20052;-71
2022/07/20 09:54:11;;;;;;;19.75;7.30;;;;;;;29.74;38.66;101563.03;5068753;28;20071;-71
2022/07/20 09:56:51;;;;;;;20.27;7.22;;;;;;;29.68;38.68;101549.19;5067166;28;20122;-69
2022/07/20 09:59:20;;;;;;;13.35;6.35;;;;;;;29.71;37.92;101552.47;5068489;28;20103;-70
2022/07/20 10:01:53;;;;;;;14.38;7.05;;;;;;;29.70;37.99;101572.47;5068008;28;20045;-71
2022/07/20 10:04:21;;;;;;;17.70;7.47;;;;;;;29.58;38.15;101569.16;5072003;28;20045;-71
2022/07/20 10:06:52;;;;;;;20.92;6.57;;;;;;;29.65;38.36;101552.22;5068953;28;20412;-70
2022/07/20 10:09:20;;;;;;;22.00;7.07;;;;;;;29.64;38.45;101561.38;5066701;28;20088;-71
2022/07/20 10:11:48;;;;;;;23.05;7.45;;;;;;;29.74;38.34;101595.63;5068495;28;20041;-72
2022/07/20 10:14:22;;;;;;;11.27;6.40;;;;;;;29.90;37.82;101610.34;5068910;28;20049;-72
2022/07/20 10:16:54;;;;;;;13.52;6.47;;;;;;;30.04;38.02;101638.88;5067525;28;20041;-72
2022/07/20 10:19:46;;;;;;;12.02;6.90;;;;;;;30.27;38.27;101646.56;5063757;28;20519;-70
2022/07/20 10:22:15;;;;;;;15.45;6.85;;;;;;;30.38;36.99;101638.16;5074874;28;20056;-70
2022/07/20 10:24:44;;;;;;;16.17;6.55;;;;;;;30.36;36.85;101641.03;5071153;28;20832;-70
2022/07/20 10:27:16;;;;;;;29.52;7.95;;;;;;;30.29;36.58;101642.66;5067154;28;20044;-71
2022/07/20 10:29:52;;;;;;;18.93;7.40;;;;;;;30.25;37.52;101641.28;5063731;28;20049;-71
2022/07/20 10:32:28;;;;;;;18.23;6.45;;;;;;;30.36;37.01;101640.16;5068792;28;20040;-71
2022/07/20 10:35:02;;;;;;;12.93;6.70;;;;;;;30.45;37.24;101620.19;5068856;28;20491;-72
2022/07/20 10:37:38;;;;;;;;;;;;;;;30.44;36.93;101613.03;5068849;28;20890;-72
2022/07/20 10:40:22;;;;;;;10.68;6.40;;;;;;;30.35;36.81;101628.44;5066306;28;19956;-72
2022/07/20 10:43:15;;;;;;;12.65;6.50;;;;;;;30.19;36.91;101626.47;5063768;28;20025;-71
2022/07/20 10:45:43;;;;;;;14.63;6.57;;;;;;;30.23;37.13;101637.88;5065645;28;20065;-72
2022/07/20 10:48:11;;;;;;;8.52;5.72;;;;;;;30.34;36.60;101620.44;5066806;28;20041;-70
2022/07/20 10:50:54;;;;;;;16.02;7.00;;;;;;;30.41;36.71;101623.38;5065418;28;20106;-73
2022/07/20 10:53:21;;;;;;;9.05;6.57;;;;;;;30.66;36.91;101608.97;5067478;28;20965;-72
2022/07/20 10:55:58;;;;;;;11.80;6.10;;;;;;;30.91;36.86;101611.81;5074283;28;20051;-72
2022/07/20 10:58:36;;;;;;;21.52;6.65;;;;;;;31.10;35.80;101615.28;5067765;28;20040;-72
2022/07/20 11:01:08;;;;;;;13.93;6.20;;;;;;;31.20;35.80;101616.06;5070220;28;20041;-72
2022/07/20 11:03:42;;;;;;;10.05;5.80;;;;;;;31.29;35.00;101614.22;5068129;28;20041;-74
2022/07/20 11:06:14;;;;;;;16.17;6.63;;;;;;;31.40;35.05;101588.53;5067214;28;20095;-72
2022/07/20 11:08:56;;;;;;;10.18;6.10;;;;;;;31.49;33.95;101578.53;5081826;28;20055;-73
2022/07/20 11:11:32;;;;;;;8.25;5.40;;;;;;;31.34;34.46;101583.78;5055934;28;20061;-73
2022/07/20 11:14:01;;;;;;;10.40;5.63;;;;;;;31.07;34.84;101586.53;5086803;28;20060;-74
2022/07/20 11:16:29;;;;;;;13.30;6.05;;;;;;;30.87;35.20;101580.50;5073977;28;20068;-72
2022/07/20 11:18:58;;;;;;;15.48;6.15;;;;;;;30.63;35.97;101576.66;5068719;28;20159;-73
2022/07/20 11:21:31;;;;;;;12.27;6.05;;;;;;;30.74;35.77;101585.53;5084664;28;20128;-73
2022/07/20 11:24:23;;;;;;;11.00;5.55;;;;;;;30.88;35.43;101593.06;5091486;28;20068;-73
2022/07/20 11:26:51;;;;;;;10.93;6.20;;;;;;;31.09;35.69;101603.56;5090709;28;20507;-71
2022/07/20 11:29:27;;;;;;;8.57;5.28;;;;;;;31.29;35.40;101587.00;5077132;28;20084;-71
2022/07/20 11:31:54;;;;;;;8.50;5.90;;;;;;;31.51;34.66;101590.94;5050735;28;20112;-70